Haywood City, Missouri
Current Conditions -  °F | °C
As of 10:53 PM on Saturday 22 Nov 2014 (Local Time) from KCGI Reporting Station
Few Clouds Few Clouds  
Wind Chill: 51°   Ceiling: Unl
Heat Index: 51°   Visibility: 10mi
Dew Point: 40°   Wind: 6mph
Humidity: 66%   Direction: 130°SE
Pressure: 29.95"   Gusts: NA
Location:  37.0868°N, 89.7125°W
Report Text: KCGI 230453Z AUTO 13005KT 10SM FEW085 11/04 A2995 RMK AO2 SLP140 T01060044 TSNO
Loading
Personal Weather Stations






























Interactive Weather Map New forecast layout! Learn more

10-Day Weather Forecast

Advertisements
Track Severe Weather on mobile